This is the latest recevied weather packets stored in our database for station/object KG5WBN. If no packets are shown the sender has not sent any weather packets the latest 10 day(s).
| Time | Temp. | Humidity | Pressure | Rain* | Wind** | Luminosity | Snow |
|---|---|---|---|---|---|---|---|
| 1788095033 | 26.67° C | 99% | 1015.9 hPa | 0 mm | - | 31 W/m² | - |
| 1788094731 | 26.67° C | 99% | 1015.6 hPa | 0 mm | - | 27 W/m² | - |
| 1788094427 | 26.67° C | 99% | 1015.9 hPa | 0 mm | - | 21 W/m² | - |
| 1788094124 | 26.67° C | 99% | 1015.6 hPa | 0 mm | - | 43 W/m² | - |
| 1788093819 | 26.67° C | 99% | 1015.9 hPa | 0 mm | - | 32 W/m² | - |
| 1788093516 | 26.67° C | 99% | 1015.9 hPa | 0 mm | - | 19 W/m² | - |
| 1788093212 | 26.67° C | 99% | 1015.9 hPa | 0 mm | - | 14 W/m² | - |
| 1788092910 | 26.67° C | 99% | 1015.6 hPa | 0 mm | - | 14 W/m² | - |
| 1788092605 | 26.67° C | 99% | 1015.6 hPa | 0 mm | - | 20 W/m² | - |
| 1788092300 | 26.67° C | 99% | 1015.6 hPa | 1.78 mm | - | 12 W/m² | - |
| 1788091999 | 26.67° C | 99% | 1015.6 hPa | 1.78 mm | - | 13 W/m² | - |
| 1788091695 | 26.67° C | 99% | 1015.6 hPa | 0 mm | - | 11 W/m² | - |
| 1788091391 | 25.56° C | 99% | 1015.6 hPa | 0 mm | - | 7 W/m² | - |
| 1788091086 | 26.11° C | 97% | 1015.6 hPa | 1.78 mm | - | 6 W/m² | - |
| 1788090782 | 26.67° C | 92% | 1015.2 hPa | 6.1 mm | - | 5 W/m² | - |
| 1788090478 | 26.67° C | 89% | 1015.6 hPa | 1.27 mm | - | 4 W/m² | - |
| 1788090174 | 26.67° C | 88% | 1015.6 hPa | 0 mm | - | 2 W/m² | - |
| 1788089869 | 26.67° C | 87% | 1015.2 hPa | 0 mm | - | 0 W/m² | - |
| 1788089564 | 26.67° C | 87% | 1015.2 hPa | 0 mm | - | 0 W/m² | - |
| 1788089260 | 26.67° C | 88% | 1015.2 hPa | 0 mm | - | 0 W/m² | - |
| 1788088956 | 26.67° C | 88% | 1015.2 hPa | 0 mm | - | 0 W/m² | - |
| 1788088651 | 26.11° C | 88% | 1015.2 hPa | 0 mm | - | 0 W/m² | - |
| 1788088347 | 26.11° C | 88% | 1015.2 hPa | 0 mm | - | 0 W/m² | - |
| 1788088046 | 26.11° C | 88% | 1014.9 hPa | 0 mm | - | 0 W/m² | - |
| 1788087743 | 26.11° C | 88% | 1014.9 hPa | 0 mm | - | 0 W/m² | - |
* Rain latest hour (hover to see other rain measurements)
** Current wind speed in m/s (hover to see current wind gust speed)